createdAt,value
2023-01-01T00:00:35.070Z,1002.68
2023-01-01T00:01:35.044Z,1002.67
2023-01-01T00:02:37.153Z,1002.65
2023-01-01T00:03:35.050Z,1002.67
2023-01-01T00:04:34.987Z,1002.72
2023-01-01T00:05:34.985Z,1002.72
2023-01-01T00:06:34.957Z,1002.72
2023-01-01T00:07:34.967Z,1002.74
2023-01-01T00:08:34.970Z,1002.73
2023-01-01T00:09:34.914Z,1002.69
2023-01-01T00:10:34.932Z,1002.74
2023-01-01T00:11:34.905Z,1002.75
2023-01-01T00:12:34.884Z,1002.77
2023-01-01T00:13:34.883Z,1002.78
2023-01-01T00:14:34.915Z,1002.78
2023-01-01T00:15:34.861Z,1002.83
2023-01-01T00:16:34.887Z,1002.83
2023-01-01T00:17:34.821Z,1002.83
2023-01-01T00:18:34.852Z,1002.86
2023-01-01T00:19:34.830Z,1002.85
2023-01-01T00:20:35.600Z,1002.90
2023-01-01T00:21:34.816Z,1002.83
2023-01-01T00:22:53.909Z,1002.83
2023-01-01T00:23:35.779Z,1002.77
2023-01-01T00:24:34.764Z,1002.74
2023-01-01T00:25:34.769Z,1002.70
2023-01-01T00:26:35.701Z,1002.77
2023-01-01T00:27:34.715Z,1002.77
2023-01-01T00:28:34.723Z,1002.79
2023-01-01T00:29:34.714Z,1002.80
2023-01-01T00:30:34.711Z,1002.81
2023-01-01T00:31:34.727Z,1002.81
2023-01-01T00:32:34.729Z,1002.85
2023-01-01T00:33:34.668Z,1002.86
2023-01-01T00:34:34.666Z,1002.89
2023-01-01T00:35:34.674Z,1002.90
2023-01-01T00:36:34.656Z,1002.96
2023-01-01T00:37:34.621Z,1002.93
2023-01-01T00:38:34.625Z,1002.95
2023-01-01T00:39:34.590Z,1002.94
2023-01-01T00:40:34.618Z,1002.96
2023-01-01T00:41:34.611Z,1002.95
2023-01-01T00:42:34.588Z,1002.96
2023-01-01T00:43:34.555Z,1002.93
2023-01-01T00:44:34.564Z,1002.94
2023-01-01T00:45:34.641Z,1002.91
2023-01-01T00:46:34.529Z,1002.88
2023-01-01T00:47:34.530Z,1002.90
2023-01-01T00:48:34.505Z,1002.93
2023-01-01T00:49:34.503Z,1002.91
2023-01-01T00:50:34.537Z,1002.91
2023-01-01T00:51:37.145Z,1002.96
2023-01-01T00:52:34.481Z,1002.94
2023-01-01T00:53:34.461Z,1002.97
2023-01-01T00:54:34.449Z,1003.03
2023-01-01T00:55:34.432Z,1003.04
2023-01-01T00:56:34.486Z,1003.03
2023-01-01T00:57:34.409Z,1003.10
2023-01-01T00:58:34.413Z,1003.04
2023-01-01T00:59:34.393Z,1003.08
2023-01-01T01:00:34.394Z,1003.08
2023-01-01T01:01:34.459Z,1003.08
2023-01-01T01:02:34.500Z,1003.07
2023-01-01T01:03:34.383Z,1003.04
2023-01-01T01:04:34.341Z,1003.09
2023-01-01T01:05:34.364Z,1003.14
2023-01-01T01:06:34.333Z,1003.08
2023-01-01T01:07:34.349Z,1003.09
2023-01-01T01:08:34.287Z,1003.06
2023-01-01T01:09:34.299Z,1003.10
2023-01-01T01:10:34.265Z,1003.12
2023-01-01T01:11:34.294Z,1003.10
2023-01-01T01:12:34.316Z,1003.13
2023-01-01T01:13:34.260Z,1003.18
2023-01-01T01:14:34.245Z,1003.14
2023-01-01T01:15:34.233Z,1003.14
2023-01-01T01:16:34.262Z,1003.14
2023-01-01T01:17:34.230Z,1003.18
2023-01-01T01:18:34.233Z,1003.18
2023-01-01T01:19:34.175Z,1003.18
2023-01-01T01:20:34.157Z,1003.16
2023-01-01T01:21:34.177Z,1003.20
2023-01-01T01:22:34.168Z,1003.22
2023-01-01T01:23:34.162Z,1003.20
2023-01-01T01:24:34.169Z,1003.20
2023-01-01T01:25:34.145Z,1003.15
2023-01-01T01:26:34.109Z,1003.15
2023-01-01T01:27:34.145Z,1003.16
2023-01-01T01:28:34.090Z,1003.16
2023-01-01T01:29:34.106Z,1003.15
2023-01-01T01:30:34.178Z,1003.15
2023-01-01T01:31:34.059Z,1003.14
2023-01-01T01:32:34.046Z,1003.13
2023-01-01T01:33:34.051Z,1003.19
2023-01-01T01:34:34.025Z,1003.24
2023-01-01T01:35:34.057Z,1003.23
2023-01-01T01:36:34.000Z,1003.23
2023-01-01T01:37:34.009Z,1003.23
2023-01-01T01:38:33.990Z,1003.28
2023-01-01T01:39:33.998Z,1003.29
2023-01-01T01:40:33.990Z,1003.26
2023-01-01T01:41:33.960Z,1003.29
2023-01-01T01:42:33.977Z,1003.24
2023-01-01T01:43:33.969Z,1003.26
2023-01-01T01:44:33.919Z,1003.23
2023-01-01T01:45:33.917Z,1003.24
2023-01-01T01:46:33.919Z,1003.29
2023-01-01T01:47:33.921Z,1003.21
2023-01-01T01:48:33.873Z,1003.23
2023-01-01T01:49:33.914Z,1003.27
2023-01-01T01:50:33.841Z,1003.22
2023-01-01T01:51:33.861Z,1003.19
2023-01-01T01:52:33.843Z,1003.20
2023-01-01T01:53:33.839Z,1003.21
2023-01-01T01:54:33.822Z,1003.30
2023-01-01T01:55:33.810Z,1003.24
2023-01-01T01:56:33.790Z,1003.27
2023-01-01T01:57:33.781Z,1003.29
2023-01-01T01:58:33.770Z,1003.28
2023-01-01T01:59:33.795Z,1003.26
2023-01-01T02:00:33.735Z,1003.23
2023-01-01T02:01:33.822Z,1003.22
2023-01-01T02:02:33.879Z,1003.17
2023-01-01T02:03:33.733Z,1003.19
2023-01-01T02:04:33.727Z,1003.19
2023-01-01T02:05:33.717Z,1003.10
2023-01-01T02:06:33.680Z,1003.12
2023-01-01T02:07:33.686Z,1003.06
2023-01-01T02:08:33.667Z,1003.11
2023-01-01T02:09:33.677Z,1003.12
2023-01-01T02:10:33.638Z,1003.12
2023-01-01T02:11:33.662Z,1003.10
2023-01-01T02:12:33.618Z,1003.09
2023-01-01T02:13:33.666Z,1003.06
2023-01-01T02:14:33.621Z,1003.03
2023-01-01T02:15:33.695Z,1003.03
2023-01-01T02:16:33.579Z,1003.02
2023-01-01T02:17:38.793Z,1003.06
2023-01-01T02:18:34.575Z,1003.02
2023-01-01T02:19:33.571Z,1002.98
2023-01-01T02:20:33.531Z,1003.02
2023-01-01T02:21:33.534Z,1002.99
2023-01-01T02:22:33.503Z,1002.95
2023-01-01T02:23:33.526Z,1002.98
2023-01-01T02:24:33.512Z,1002.98
2023-01-01T02:25:33.482Z,1002.98
2023-01-01T02:26:33.468Z,1002.98
2023-01-01T02:27:33.469Z,1003.00
2023-01-01T02:28:33.456Z,1003.01
2023-01-01T02:29:33.473Z,1002.98
2023-01-01T02:30:33.417Z,1002.99
2023-01-01T02:31:33.485Z,1002.95
2023-01-01T02:32:33.425Z,1002.97
2023-01-01T02:33:33.417Z,1002.92
2023-01-01T02:34:33.423Z,1002.93
2023-01-01T02:35:33.408Z,1002.95
2023-01-01T02:36:33.361Z,1002.93
2023-01-01T02:37:33.365Z,1002.92
2023-01-01T02:38:33.340Z,1002.91
2023-01-01T02:39:33.374Z,1002.92
2023-01-01T02:40:33.395Z,1002.95
2023-01-01T02:41:33.364Z,1003.02
2023-01-01T02:42:33.282Z,1002.96
2023-01-01T02:43:33.302Z,1003.00
2023-01-01T02:44:33.293Z,1003.01
2023-01-01T02:45:33.306Z,1003.05
2023-01-01T02:46:33.277Z,1003.06
2023-01-01T02:47:33.256Z,1003.07
2023-01-01T02:48:33.252Z,1003.06
2023-01-01T02:49:33.269Z,1003.10
2023-01-01T02:50:33.243Z,1003.15
2023-01-01T02:51:33.207Z,1003.15
2023-01-01T02:52:33.197Z,1003.21
2023-01-01T02:53:33.218Z,1003.24
2023-01-01T02:54:33.194Z,1003.23
2023-01-01T02:55:33.200Z,1003.24
2023-01-01T02:56:33.216Z,1003.31
2023-01-01T02:57:33.150Z,1003.23
2023-01-01T02:58:33.135Z,1003.28
2023-01-01T02:59:33.137Z,1003.29
2023-01-01T03:00:33.147Z,1003.31
2023-01-01T03:01:33.187Z,1003.32
2023-01-01T03:02:33.181Z,1003.30
2023-01-01T03:03:33.188Z,1003.32
2023-01-01T03:04:33.083Z,1003.30
2023-01-01T03:05:33.087Z,1003.29
2023-01-01T03:06:33.046Z,1003.33
2023-01-01T03:07:33.057Z,1003.28
2023-01-01T03:08:33.041Z,1003.29
2023-01-01T03:09:33.048Z,1003.32
2023-01-01T03:10:33.051Z,1003.33
2023-01-01T03:11:33.048Z,1003.37
2023-01-01T03:12:32.986Z,1003.38
2023-01-01T03:13:33.005Z,1003.44
2023-01-01T03:14:32.979Z,1003.40
2023-01-01T03:15:33.032Z,1003.40
2023-01-01T03:16:32.966Z,1003.41
2023-01-01T03:17:32.965Z,1003.40
2023-01-01T03:18:32.909Z,1003.45
2023-01-01T03:19:32.929Z,1003.39
2023-01-01T03:20:32.932Z,1003.43
2023-01-01T03:21:32.920Z,1003.47
2023-01-01T03:22:32.895Z,1003.43
2023-01-01T03:23:32.897Z,1003.45
2023-01-01T03:24:32.861Z,1003.42
2023-01-01T03:25:33.535Z,1003.46
2023-01-01T03:26:32.861Z,1003.42
2023-01-01T03:27:32.840Z,1003.41
2023-01-01T03:28:32.815Z,1003.44
2023-01-01T03:29:32.816Z,1003.49
2023-01-01T03:30:32.817Z,1003.48
2023-01-01T03:31:32.858Z,1003.50
2023-01-01T03:32:32.782Z,1003.48
2023-01-01T03:33:32.772Z,1003.49
2023-01-01T03:34:32.771Z,1003.47
2023-01-01T03:35:32.759Z,1003.48
2023-01-01T03:36:32.759Z,1003.45
2023-01-01T03:37:32.722Z,1003.49
2023-01-01T03:38:32.739Z,1003.52
2023-01-01T03:39:32.711Z,1003.45
2023-01-01T03:40:32.680Z,1003.48
2023-01-01T03:41:32.735Z,1003.46
2023-01-01T03:42:32.682Z,1003.48
2023-01-01T03:43:32.684Z,1003.49
2023-01-01T03:44:32.642Z,1003.51
2023-01-01T03:45:32.667Z,1003.51
2023-01-01T03:46:32.660Z,1003.49
2023-01-01T03:47:32.628Z,1003.48
2023-01-01T03:48:32.667Z,1003.49
2023-01-01T03:49:32.592Z,1003.49
2023-01-01T03:50:32.581Z,1003.50
2023-01-01T03:51:32.573Z,1003.45
2023-01-01T03:52:32.574Z,1003.44
2023-01-01T03:53:32.591Z,1003.47
2023-01-01T03:54:32.584Z,1003.48
2023-01-01T03:55:32.551Z,1003.53
2023-01-01T03:56:32.518Z,1003.53
2023-01-01T03:57:32.540Z,1003.50
2023-01-01T03:58:32.518Z,1003.47
2023-01-01T03:59:32.491Z,1003.46
2023-01-01T04:00:32.474Z,1003.45
2023-01-01T04:01:32.586Z,1003.43
2023-01-01T04:02:32.551Z,1003.47
2023-01-01T04:03:32.540Z,1003.46
2023-01-01T04:04:32.444Z,1003.47
2023-01-01T04:05:32.431Z,1003.46
2023-01-01T04:06:32.417Z,1003.49
2023-01-01T04:07:32.410Z,1003.46
2023-01-01T04:08:32.396Z,1003.47
2023-01-01T04:09:32.453Z,1003.45
2023-01-01T04:10:32.363Z,1003.47
2023-01-01T04:11:32.414Z,1003.47
2023-01-01T04:12:32.362Z,1003.47
2023-01-01T04:13:32.365Z,1003.49
2023-01-01T04:14:32.342Z,1003.43
2023-01-01T04:15:32.337Z,1003.45
2023-01-01T04:16:32.352Z,1003.45
2023-01-01T04:17:32.330Z,1003.44
2023-01-01T04:18:32.313Z,1003.45
2023-01-01T04:19:32.289Z,1003.47
2023-01-01T04:20:32.271Z,1003.45
2023-01-01T04:21:32.263Z,1003.50
2023-01-01T04:22:32.242Z,1003.56
2023-01-01T04:23:32.252Z,1003.49
2023-01-01T04:24:32.241Z,1003.49
2023-01-01T04:25:32.221Z,1003.50
2023-01-01T04:26:32.208Z,1003.52
2023-01-01T04:27:32.206Z,1003.54
2023-01-01T04:28:32.205Z,1003.43
2023-01-01T04:29:32.185Z,1003.48
2023-01-01T04:30:32.176Z,1003.49
2023-01-01T04:31:32.184Z,1003.44
2023-01-01T04:32:32.151Z,1003.40
2023-01-01T04:33:32.154Z,1003.36
2023-01-01T04:34:32.113Z,1003.35
2023-01-01T04:35:32.105Z,1003.41
2023-01-01T04:36:32.098Z,1003.40
2023-01-01T04:37:32.133Z,1003.40
2023-01-01T04:38:32.076Z,1003.38
2023-01-01T04:39:32.127Z,1003.44
2023-01-01T04:40:32.051Z,1003.43
2023-01-01T04:41:32.065Z,1003.42
2023-01-01T04:42:32.028Z,1003.49
2023-01-01T04:43:32.029Z,1003.48
2023-01-01T04:44:32.027Z,1003.43
2023-01-01T04:45:32.057Z,1003.45
2023-01-01T04:46:32.005Z,1003.39
2023-01-01T04:47:32.002Z,1003.37
2023-01-01T04:48:31.963Z,1003.40
2023-01-01T04:49:31.997Z,1003.44
2023-01-01T04:50:31.990Z,1003.46
2023-01-01T04:51:31.954Z,1003.43
2023-01-01T04:52:31.949Z,1003.45
2023-01-01T04:53:31.930Z,1003.43
2023-01-01T04:54:31.909Z,1003.43
2023-01-01T04:55:31.916Z,1003.42
2023-01-01T04:56:31.884Z,1003.42
2023-01-01T04:57:31.901Z,1003.48
2023-01-01T04:58:31.867Z,1003.50
2023-01-01T04:59:31.882Z,1003.51
2023-01-01T05:00:31.889Z,1003.53
2023-01-01T05:01:31.949Z,1003.57
2023-01-01T05:02:31.915Z,1003.64
2023-01-01T05:03:31.826Z,1003.63
2023-01-01T05:04:31.797Z,1003.60
2023-01-01T05:05:31.839Z,1003.62
2023-01-01T05:06:31.791Z,1003.63
2023-01-01T05:07:31.823Z,1003.66
2023-01-01T05:08:31.751Z,1003.71
2023-01-01T05:09:31.757Z,1003.71
2023-01-01T05:10:31.741Z,1003.72
2023-01-01T05:11:31.760Z,1003.73
2023-01-01T05:12:31.725Z,1003.75
2023-01-01T05:13:31.735Z,1003.76
2023-01-01T05:14:31.687Z,1003.78
2023-01-01T05:15:31.731Z,1003.80
2023-01-01T05:16:31.731Z,1003.75
2023-01-01T05:17:31.668Z,1003.75
2023-01-01T05:18:31.664Z,1003.72
2023-01-01T05:19:31.641Z,1003.71
2023-01-01T05:20:31.640Z,1003.68
2023-01-01T05:21:31.664Z,1003.74
2023-01-01T05:22:31.641Z,1003.73
2023-01-01T05:23:31.667Z,1003.76
2023-01-01T05:24:31.621Z,1003.74
2023-01-01T05:25:31.581Z,1003.76
2023-01-01T05:26:31.610Z,1003.79
2023-01-01T05:27:31.608Z,1003.84
2023-01-01T05:28:31.559Z,1003.86
2023-01-01T05:29:31.558Z,1003.88
2023-01-01T05:30:31.535Z,1003.90
2023-01-01T05:31:31.555Z,1003.93
2023-01-01T05:32:31.542Z,1004.00
2023-01-01T05:33:31.496Z,1004.02
2023-01-01T05:35:05.598Z,1004.01
2023-01-01T05:36:05.601Z,1004.00
2023-01-01T05:37:05.588Z,1004.01
2023-01-01T05:38:05.584Z,1004.00
2023-01-01T05:39:05.548Z,1004.00
2023-01-01T05:40:05.559Z,1004.03
2023-01-01T05:41:05.537Z,1004.03
2023-01-01T05:42:05.551Z,1004.06
2023-01-01T05:43:05.509Z,1004.03
2023-01-01T05:44:05.532Z,1004.06
2023-01-01T05:45:05.498Z,1004.05
2023-01-01T05:46:05.531Z,1004.00
2023-01-01T05:47:05.465Z,1004.04
2023-01-01T05:48:05.486Z,1004.09
2023-01-01T05:49:05.471Z,1004.12
2023-01-01T05:50:41.097Z,1004.17
2023-01-01T05:52:11.169Z,1004.14
2023-01-01T05:53:09.536Z,1004.15
2023-01-01T05:54:45.157Z,1004.18
2023-01-01T05:55:43.635Z,1004.18
2023-01-01T05:56:43.611Z,1004.18
2023-01-01T05:57:43.656Z,1004.16
2023-01-01T05:58:43.603Z,1004.20
2023-01-01T05:59:43.593Z,1004.13
2023-01-01T06:00:43.575Z,1004.19
2023-01-01T06:01:46.041Z,1004.18
2023-01-01T06:02:43.665Z,1004.19
2023-01-01T06:03:43.570Z,1004.17
2023-01-01T06:04:43.566Z,1004.20
2023-01-01T06:05:43.735Z,1004.21
2023-01-01T06:06:43.510Z,1004.24
2023-01-01T06:07:48.440Z,1004.24
2023-01-01T06:08:44.515Z,1004.25
2023-01-01T06:09:43.484Z,1004.23
2023-01-01T06:10:43.473Z,1004.19
2023-01-01T06:11:43.471Z,1004.23
2023-01-01T06:12:43.441Z,1004.25
2023-01-01T06:13:43.434Z,1004.30
2023-01-01T06:14:43.436Z,1004.26
2023-01-01T06:15:43.430Z,1004.25
2023-01-01T06:16:43.479Z,1004.28
2023-01-01T06:17:43.416Z,1004.29
2023-01-01T06:18:43.382Z,1004.27
2023-01-01T06:19:43.407Z,1004.26
2023-01-01T06:20:43.371Z,1004.27
2023-01-01T06:21:43.360Z,1004.25
2023-01-01T06:22:43.343Z,1004.26
2023-01-01T06:23:43.353Z,1004.25
2023-01-01T06:24:43.365Z,1004.22
2023-01-01T06:25:43.347Z,1004.20
2023-01-01T06:26:43.297Z,1004.23
2023-01-01T06:27:43.291Z,1004.26
2023-01-01T06:28:43.298Z,1004.29
2023-01-01T06:29:43.315Z,1004.34
2023-01-01T06:30:43.288Z,1004.30
2023-01-01T06:31:43.254Z,1004.30
2023-01-01T06:32:43.245Z,1004.32
2023-01-01T06:33:43.238Z,1004.31
2023-01-01T06:34:43.297Z,1004.27
2023-01-01T06:35:43.237Z,1004.30
2023-01-01T06:36:43.196Z,1004.27
2023-01-01T06:37:43.203Z,1004.33
2023-01-01T06:38:43.212Z,1004.36
2023-01-01T06:39:43.211Z,1004.38
2023-01-01T06:40:43.177Z,1004.37
2023-01-01T06:41:43.184Z,1004.37
2023-01-01T06:42:43.177Z,1004.41
2023-01-01T06:43:43.154Z,1004.41
2023-01-01T06:44:43.155Z,1004.51
2023-01-01T06:45:43.134Z,1004.50
2023-01-01T06:46:43.103Z,1004.54
2023-01-01T06:47:43.094Z,1004.53
2023-01-01T06:48:43.068Z,1004.55
2023-01-01T06:49:43.090Z,1004.52
2023-01-01T06:50:43.045Z,1004.51
2023-01-01T06:51:43.063Z,1004.48
2023-01-01T06:52:43.037Z,1004.46
2023-01-01T06:53:43.020Z,1004.55
2023-01-01T06:54:42.997Z,1004.51
2023-01-01T06:55:43.003Z,1004.51
2023-01-01T06:56:43.006Z,1004.52
2023-01-01T06:57:42.988Z,1004.54
2023-01-01T06:58:42.967Z,1004.51
2023-01-01T06:59:42.961Z,1004.57
2023-01-01T07:00:42.938Z,1004.56
2023-01-01T07:01:44.356Z,1004.60
2023-01-01T07:02:43.060Z,1004.53
2023-01-01T07:03:42.974Z,1004.53
2023-01-01T07:04:42.899Z,1004.58
2023-01-01T07:05:42.907Z,1004.57
2023-01-01T07:06:42.911Z,1004.60
2023-01-01T07:07:42.878Z,1004.62
2023-01-01T07:08:42.857Z,1004.60
2023-01-01T07:09:42.863Z,1004.66
2023-01-01T07:10:42.820Z,1004.61
2023-01-01T07:11:42.860Z,1004.66
2023-01-01T07:12:42.831Z,1004.65
2023-01-01T07:13:42.846Z,1004.68
2023-01-01T07:14:42.841Z,1004.76
2023-01-01T07:15:42.836Z,1004.76
2023-01-01T07:16:42.764Z,1004.76
2023-01-01T07:17:42.771Z,1004.78
2023-01-01T07:18:42.756Z,1004.77
2023-01-01T07:19:42.764Z,1004.82
2023-01-01T07:20:42.727Z,1004.83
2023-01-01T07:21:42.736Z,1004.87
2023-01-01T07:22:42.706Z,1004.83
2023-01-01T07:23:42.714Z,1004.85
2023-01-01T07:24:42.695Z,1004.83
2023-01-01T07:25:42.689Z,1004.87
2023-01-01T07:26:42.669Z,1004.91
2023-01-01T07:27:42.716Z,1004.91
2023-01-01T07:28:42.662Z,1004.90
2023-01-01T07:29:42.653Z,1004.87
2023-01-01T07:30:42.646Z,1004.93
2023-01-01T07:31:42.759Z,1004.92
2023-01-01T07:32:42.628Z,1004.88
2023-01-01T07:33:42.617Z,1004.88
2023-01-01T07:34:47.390Z,1004.90
2023-01-01T07:35:43.587Z,1004.88
2023-01-01T07:36:42.573Z,1004.92
2023-01-01T07:37:42.595Z,1004.95
2023-01-01T07:38:42.535Z,1004.87
2023-01-01T07:39:42.542Z,1004.85
2023-01-01T07:40:42.538Z,1004.84
2023-01-01T07:41:42.518Z,1004.88
2023-01-01T07:42:42.526Z,1004.93
2023-01-01T07:43:42.500Z,1004.91
2023-01-01T07:44:42.471Z,1004.92
2023-01-01T07:45:42.473Z,1004.93
2023-01-01T07:46:42.527Z,1005.00
2023-01-01T07:47:42.469Z,1005.04
2023-01-01T07:48:42.456Z,1005.07
2023-01-01T07:49:42.436Z,1005.07
2023-01-01T07:50:42.436Z,1005.10
2023-01-01T07:51:42.430Z,1005.07
2023-01-01T07:52:42.394Z,1005.07
2023-01-01T07:53:42.434Z,1005.05
2023-01-01T07:54:42.412Z,1005.06
2023-01-01T07:55:42.386Z,1005.07
2023-01-01T07:56:42.339Z,1005.13
2023-01-01T07:57:42.357Z,1005.17
2023-01-01T07:58:42.332Z,1005.21
2023-01-01T07:59:42.352Z,1005.28
2023-01-01T08:00:42.312Z,1005.25
2023-01-01T08:01:42.367Z,1005.27
2023-01-01T08:02:42.425Z,1005.26
2023-01-01T08:03:42.317Z,1005.26
2023-01-01T08:04:42.281Z,1005.25
2023-01-01T08:05:42.285Z,1005.26
2023-01-01T08:06:42.234Z,1005.24
2023-01-01T08:07:42.241Z,1005.25
2023-01-01T08:08:42.219Z,1005.28
2023-01-01T08:09:42.257Z,1005.34
2023-01-01T08:10:42.203Z,1005.34
2023-01-01T08:11:42.219Z,1005.41
2023-01-01T08:12:42.211Z,1005.44
2023-01-01T08:13:42.204Z,1005.45
2023-01-01T08:14:42.204Z,1005.42
2023-01-01T08:15:42.210Z,1005.50
2023-01-01T08:16:42.147Z,1005.51
2023-01-01T08:17:46.409Z,1005.52
2023-01-01T08:18:43.106Z,1005.48
2023-01-01T08:19:42.119Z,1005.46
2023-01-01T08:20:42.110Z,1005.43
2023-01-01T08:21:42.119Z,1005.44
2023-01-01T08:22:42.139Z,1005.44
2023-01-01T08:23:42.075Z,1005.41
2023-01-01T08:24:42.063Z,1005.42
2023-01-01T08:25:42.079Z,1005.45
2023-01-01T08:26:42.049Z,1005.42
2023-01-01T08:27:42.028Z,1005.44
2023-01-01T08:28:42.056Z,1005.36
2023-01-01T08:29:42.029Z,1005.26
2023-01-01T08:30:41.988Z,1005.27
2023-01-01T08:31:42.059Z,1005.21
2023-01-01T08:32:41.980Z,1005.18
2023-01-01T08:33:41.976Z,1005.27
2023-01-01T08:34:41.966Z,1005.29
2023-01-01T08:35:41.948Z,1005.29
2023-01-01T08:36:41.931Z,1005.25
2023-01-01T08:37:41.932Z,1005.30
2023-01-01T08:38:42.134Z,1005.36
2023-01-01T08:39:41.904Z,1005.42
2023-01-01T08:40:41.872Z,1005.48
2023-01-01T08:41:41.903Z,1005.53
2023-01-01T08:42:41.898Z,1005.52
2023-01-01T08:43:41.881Z,1005.57
2023-01-01T08:44:41.855Z,1005.61
2023-01-01T08:45:41.860Z,1005.57
2023-01-01T08:46:41.913Z,1005.57
2023-01-01T08:47:41.839Z,1005.54
2023-01-01T08:48:41.798Z,1005.51
2023-01-01T08:49:41.803Z,1005.51
2023-01-01T08:50:41.790Z,1005.45
2023-01-01T08:51:41.810Z,1005.47
2023-01-01T08:52:41.765Z,1005.47
2023-01-01T08:53:46.885Z,1005.51
2023-01-01T08:54:42.741Z,1005.54
2023-01-01T08:55:41.749Z,1005.46
2023-01-01T08:56:41.745Z,1005.49
2023-01-01T08:57:41.740Z,1005.46
2023-01-01T08:58:41.699Z,1005.50
2023-01-01T08:59:41.721Z,1005.51
2023-01-01T09:00:41.676Z,1005.52
2023-01-01T09:01:41.833Z,1005.54
2023-01-01T09:02:41.753Z,1005.57
2023-01-01T09:03:41.659Z,1005.52
2023-01-01T09:04:41.647Z,1005.54
2023-01-01T09:05:41.628Z,1005.56
2023-01-01T09:06:41.605Z,1005.54
2023-01-01T09:07:41.633Z,1005.61
2023-01-01T09:08:41.614Z,1005.59
2023-01-01T09:09:41.612Z,1005.63
2023-01-01T09:10:41.563Z,1005.63
2023-01-01T09:11:41.579Z,1005.74
2023-01-01T09:12:41.565Z,1005.72
2023-01-01T09:13:41.586Z,1005.70
2023-01-01T09:14:41.534Z,1005.68
2023-01-01T09:15:41.553Z,1005.71
2023-01-01T09:16:44.235Z,1005.72
2023-01-01T09:17:41.516Z,1005.71
2023-01-01T09:18:41.510Z,1005.71
2023-01-01T09:19:41.515Z,1005.71
2023-01-01T09:20:41.457Z,1005.70
2023-01-01T09:21:41.479Z,1005.75
2023-01-01T09:22:41.456Z,1005.72
2023-01-01T09:23:41.556Z,1005.74
2023-01-01T09:24:41.490Z,1005.73
2023-01-01T09:25:41.446Z,1005.78
2023-01-01T09:26:41.425Z,1005.81
2023-01-01T09:27:41.440Z,1005.79
2023-01-01T09:28:41.427Z,1005.76
2023-01-01T09:29:41.411Z,1005.81
2023-01-01T09:30:41.358Z,1005.80
2023-01-01T09:31:41.418Z,1005.81
2023-01-01T09:32:41.346Z,1005.85
2023-01-01T09:33:41.339Z,1005.84
2023-01-01T09:34:41.340Z,1005.92
2023-01-01T09:35:41.353Z,1005.93
2023-01-01T09:36:41.311Z,1005.91
2023-01-01T09:37:41.303Z,1005.95
2023-01-01T09:38:41.365Z,1005.94
2023-01-01T09:39:41.284Z,1005.94
2023-01-01T09:40:44.751Z,1005.92
2023-01-01T09:41:42.255Z,1005.84
2023-01-01T09:42:41.247Z,1005.93
2023-01-01T09:43:41.211Z,1005.96
2023-01-01T09:44:41.228Z,1006.00
2023-01-01T09:45:41.286Z,1006.03
2023-01-01T09:46:41.198Z,1006.07
2023-01-01T09:47:41.219Z,1006.11
2023-01-01T09:48:41.201Z,1006.18
2023-01-01T09:49:41.155Z,1006.26
2023-01-01T09:50:41.164Z,1006.31
2023-01-01T09:51:48.753Z,1006.27
2023-01-01T09:52:42.150Z,1006.32
2023-01-01T09:53:41.180Z,1006.36
2023-01-01T09:54:41.162Z,1006.36
2023-01-01T09:55:41.105Z,1006.36
2023-01-01T09:56:41.112Z,1006.38
2023-01-01T09:57:41.090Z,1006.34
2023-01-01T09:58:41.077Z,1006.34
2023-01-01T09:59:41.057Z,1006.34
2023-01-01T10:00:41.076Z,1006.32
2023-01-01T10:01:41.094Z,1006.29
2023-01-01T10:02:41.051Z,1006.30
2023-01-01T10:03:41.075Z,1006.27
2023-01-01T10:04:41.038Z,1006.20
2023-01-01T10:05:41.033Z,1006.21
2023-01-01T10:06:41.026Z,1006.24
2023-01-01T10:07:40.995Z,1006.22
2023-01-01T10:08:40.986Z,1006.20
2023-01-01T10:09:40.936Z,1006.18
2023-01-01T10:10:40.992Z,1006.14
2023-01-01T10:11:40.924Z,1006.14
2023-01-01T10:12:41.021Z,1006.21
2023-01-01T10:13:40.944Z,1006.21
2023-01-01T10:14:40.919Z,1006.17
2023-01-01T10:15:40.870Z,1006.19
2023-01-01T10:16:40.908Z,1006.15
2023-01-01T10:17:40.890Z,1006.17
2023-01-01T10:18:40.878Z,1006.11
2023-01-01T10:19:40.896Z,1006.11
2023-01-01T10:20:40.841Z,1006.09
2023-01-01T10:21:46.633Z,1006.07
2023-01-01T10:22:41.837Z,1006.01
2023-01-01T10:23:40.815Z,1005.94
2023-01-01T10:24:40.812Z,1005.98
2023-01-01T10:25:40.806Z,1005.92
2023-01-01T10:26:40.807Z,1005.96
2023-01-01T10:27:40.786Z,1005.92
2023-01-01T10:28:40.777Z,1005.89
2023-01-01T10:29:40.785Z,1005.81
2023-01-01T10:30:40.745Z,1005.80
2023-01-01T10:31:40.778Z,1005.88
2023-01-01T10:32:40.785Z,1005.91
2023-01-01T10:33:40.708Z,1005.94
2023-01-01T10:34:40.733Z,1005.86
2023-01-01T10:35:40.683Z,1005.94
2023-01-01T10:36:40.679Z,1005.89
2023-01-01T10:37:40.674Z,1005.88
2023-01-01T10:38:40.667Z,1005.88
2023-01-01T10:39:40.652Z,1005.90
2023-01-01T10:40:40.652Z,1005.83
2023-01-01T10:41:40.607Z,1005.83
2023-01-01T10:42:40.631Z,1005.86
2023-01-01T10:43:40.588Z,1005.82
2023-01-01T10:44:40.640Z,1005.73
2023-01-01T10:45:40.661Z,1005.74
2023-01-01T10:46:40.574Z,1005.71
2023-01-01T10:47:40.544Z,1005.74
2023-01-01T10:48:40.580Z,1005.74
2023-01-01T10:49:40.536Z,1005.71
2023-01-01T10:50:40.516Z,1005.73
2023-01-01T10:51:40.526Z,1005.77
2023-01-01T10:52:40.506Z,1005.79
2023-01-01T10:53:40.493Z,1005.78
2023-01-01T10:54:40.520Z,1005.80
2023-01-01T10:55:40.459Z,1005.78
2023-01-01T10:56:40.470Z,1005.75
2023-01-01T10:57:40.566Z,1005.72
2023-01-01T10:58:40.463Z,1005.73
2023-01-01T10:59:40.463Z,1005.76
2023-01-01T11:00:40.445Z,1005.79
2023-01-01T11:01:40.493Z,1005.80
2023-01-01T11:02:40.519Z,1005.77
2023-01-01T11:03:40.386Z,1005.78
2023-01-01T11:04:40.378Z,1005.75
2023-01-01T11:05:40.413Z,1005.77
2023-01-01T11:06:40.378Z,1005.78
2023-01-01T11:07:40.328Z,1005.76
2023-01-01T11:08:40.340Z,1005.73
2023-01-01T11:09:40.329Z,1005.79
2023-01-01T11:10:40.360Z,1005.83
2023-01-01T11:11:40.282Z,1005.86
2023-01-01T11:13:04.670Z,1005.84
2023-01-01T11:13:41.289Z,1005.78
2023-01-01T11:14:40.299Z,1005.75
2023-01-01T11:15:40.291Z,1005.77
2023-01-01T11:16:40.312Z,1005.68
2023-01-01T11:17:40.230Z,1005.69
2023-01-01T11:18:40.256Z,1005.61
2023-01-01T11:19:43.012Z,1005.63
2023-01-01T11:20:41.245Z,1005.65
2023-01-01T11:21:40.202Z,1005.61
2023-01-01T11:22:40.196Z,1005.63
2023-01-01T11:23:40.228Z,1005.64
2023-01-01T11:24:40.199Z,1005.67
2023-01-01T11:25:40.141Z,1005.61
2023-01-01T11:26:40.301Z,1005.63
2023-01-01T11:27:40.128Z,1005.62
2023-01-01T11:28:40.124Z,1005.62
2023-01-01T11:29:40.142Z,1005.59
2023-01-01T11:30:40.153Z,1005.58
2023-01-01T11:31:40.119Z,1005.61
2023-01-01T11:32:40.083Z,1005.60
2023-01-01T11:33:40.075Z,1005.55
2023-01-01T11:34:40.086Z,1005.50
2023-01-01T11:35:40.053Z,1005.48
2023-01-01T11:36:40.047Z,1005.48
2023-01-01T11:37:40.010Z,1005.45
2023-01-01T11:38:40.029Z,1005.45
2023-01-01T11:39:40.021Z,1005.46
2023-01-01T11:40:39.995Z,1005.45
2023-01-01T11:41:39.994Z,1005.49
2023-01-01T11:42:39.983Z,1005.44
2023-01-01T11:43:39.969Z,1005.45
2023-01-01T11:44:39.966Z,1005.44
2023-01-01T11:45:39.977Z,1005.40
2023-01-01T11:46:39.938Z,1005.41
2023-01-01T11:47:39.916Z,1005.39
2023-01-01T11:48:39.911Z,1005.41
2023-01-01T11:49:39.900Z,1005.43
2023-01-01T11:50:39.943Z,1005.41
2023-01-01T11:51:39.877Z,1005.42
2023-01-01T11:52:39.867Z,1005.36
2023-01-01T11:53:39.889Z,1005.33
2023-01-01T11:54:39.859Z,1005.35
2023-01-01T11:55:39.840Z,1005.39
2023-01-01T11:56:39.868Z,1005.37
2023-01-01T11:57:39.797Z,1005.37
2023-01-01T11:58:39.810Z,1005.36
2023-01-01T11:59:39.775Z,1005.29
2023-01-01T12:00:39.799Z,1005.28
2023-01-01T12:01:39.805Z,1005.21
2023-01-01T12:02:39.805Z,1005.17
2023-01-01T12:03:39.834Z,1005.19
2023-01-01T12:04:39.792Z,1005.18
2023-01-01T12:05:39.755Z,1005.18
2023-01-01T12:06:39.743Z,1005.15
2023-01-01T12:07:39.702Z,1005.14